sensor_id;sensor_type;location;lat;lon;timestamp;pressure;altitude;pressure_sealevel;temperature;humidity
62436;BME280;48480;50.252;18.848;2022-11-20T00:01:23;98384.02;;;-4.20;64.84
62436;BME280;48480;50.252;18.848;2022-11-20T00:03:51;98381.44;;;-4.23;64.83
62436;BME280;48480;50.252;18.848;2022-11-20T00:06:19;98378.98;;;-4.25;64.95
62436;BME280;48480;50.252;18.848;2022-11-20T00:08:45;98373.59;;;-4.30;64.83
62436;BME280;48480;50.252;18.848;2022-11-20T00:11:22;98366.99;;;-4.35;65.01
62436;BME280;48480;50.252;18.848;2022-11-20T00:13:51;98365.91;;;-4.42;65.13
62436;BME280;48480;50.252;18.848;2022-11-20T00:16:19;98366.70;;;-4.47;65.48
62436;BME280;48480;50.252;18.848;2022-11-20T00:18:45;98369.22;;;-4.53;66.55
62436;BME280;48480;50.252;18.848;2022-11-20T00:21:23;98368.89;;;-4.56;68.51
62436;BME280;48480;50.252;18.848;2022-11-20T00:23:51;98367.92;;;-4.53;69.73
62436;BME280;48480;50.252;18.848;2022-11-20T00:26:19;98363.02;;;-4.41;70.38
62436;BME280;48480;50.252;18.848;2022-11-20T00:29:08;98365.07;;;-4.29;70.73
62436;BME280;48480;50.252;18.848;2022-11-20T00:31:34;98372.64;;;-4.12;70.79
62436;BME280;48480;50.252;18.848;2022-11-20T00:34:00;98372.73;;;-3.99;70.82
62436;BME280;48480;50.252;18.848;2022-11-20T00:36:27;98373.43;;;-3.89;71.06
62436;BME280;48480;50.252;18.848;2022-11-20T00:38:55;98365.09;;;-3.83;71.37
62436;BME280;48480;50.252;18.848;2022-11-20T00:45:48;98367.77;;;-3.81;71.71
62436;BME280;48480;50.252;18.848;2022-11-20T00:48:14;98364.30;;;-3.85;71.85
62436;BME280;48480;50.252;18.848;2022-11-20T00:50:40;98357.98;;;-3.87;71.72
62436;BME280;48480;50.252;18.848;2022-11-20T00:53:06;98356.21;;;-3.90;71.66
62436;BME280;48480;50.252;18.848;2022-11-20T00:55:31;98353.48;;;-3.92;71.72
62436;BME280;48480;50.252;18.848;2022-11-20T00:57:57;98350.59;;;-3.95;72.21
62436;BME280;48480;50.252;18.848;2022-11-20T01:00:22;98350.69;;;-3.99;72.39
62436;BME280;48480;50.252;18.848;2022-11-20T01:02:47;98347.79;;;-4.00;72.49
62436;BME280;48480;50.252;18.848;2022-11-20T01:05:13;98346.42;;;-3.94;72.43
62436;BME280;48480;50.252;18.848;2022-11-20T01:07:38;98347.06;;;-3.83;72.35
62436;BME280;48480;50.252;18.848;2022-11-20T01:10:04;98347.05;;;-3.73;72.11
62436;BME280;48480;50.252;18.848;2022-11-20T01:12:29;98344.80;;;-3.68;72.42
62436;BME280;48480;50.252;18.848;2022-11-20T01:14:54;98343.61;;;-3.65;72.20
62436;BME280;48480;50.252;18.848;2022-11-20T01:17:20;98343.73;;;-3.69;72.34
62436;BME280;48480;50.252;18.848;2022-11-20T01:19:49;98346.11;;;-3.70;72.54
62436;BME280;48480;50.252;18.848;2022-11-20T01:22:15;98342.09;;;-3.76;72.47
62436;BME280;48480;50.252;18.848;2022-11-20T01:24:40;98344.86;;;-3.86;72.83
62436;BME280;48480;50.252;18.848;2022-11-20T01:27:06;98338.05;;;-3.98;73.12
62436;BME280;48480;50.252;18.848;2022-11-20T01:29:31;98332.77;;;-4.01;73.22
62436;BME280;48480;50.252;18.848;2022-11-20T01:31:56;98328.77;;;-4.00;73.53
62436;BME280;48480;50.252;18.848;2022-11-20T01:34:22;98322.88;;;-3.97;73.35
62436;BME280;48480;50.252;18.848;2022-11-20T01:36:50;98322.66;;;-3.90;73.28
62436;BME280;48480;50.252;18.848;2022-11-20T01:39:19;98321.48;;;-3.89;73.34
62436;BME280;48480;50.252;18.848;2022-11-20T01:41:46;98310.38;;;-3.91;73.43
62436;BME280;48480;50.252;18.848;2022-11-20T01:47:17;98303.50;;;-3.92;73.65
62436;BME280;48480;50.252;18.848;2022-11-20T01:49:50;98303.33;;;-3.92;73.62
62436;BME280;48480;50.252;18.848;2022-11-20T01:52:46;98301.91;;;-3.97;73.60
62436;BME280;48480;50.252;18.848;2022-11-20T01:55:20;98301.79;;;-3.97;73.79
62436;BME280;48480;50.252;18.848;2022-11-20T01:57:48;98300.63;;;-4.00;73.84
62436;BME280;48480;50.252;18.848;2022-11-20T02:00:16;98302.31;;;-3.97;73.73
62436;BME280;48480;50.252;18.848;2022-11-20T02:03:09;98304.95;;;-3.93;73.49
62436;BME280;48480;50.252;18.848;2022-11-20T02:08:14;98316.67;;;-3.89;72.97
62436;BME280;48480;50.252;18.848;2022-11-20T02:10:40;98309.77;;;-3.88;72.68
62436;BME280;48480;50.252;18.848;2022-11-20T02:13:06;98310.27;;;-3.87;72.78
62436;BME280;48480;50.252;18.848;2022-11-20T02:15:52;98313.82;;;-3.90;72.70
62436;BME280;48480;50.252;18.848;2022-11-20T02:18:19;98315.45;;;-3.99;73.11
62436;BME280;48480;50.252;18.848;2022-11-20T02:20:47;98318.56;;;-3.97;73.19
62436;BME280;48480;50.252;18.848;2022-11-20T02:23:19;98321.42;;;-3.99;73.32
62436;BME280;48480;50.252;18.848;2022-11-20T02:25:48;98325.02;;;-3.95;73.48
62436;BME280;48480;50.252;18.848;2022-11-20T02:28:14;98326.98;;;-3.90;73.35
62436;BME280;48480;50.252;18.848;2022-11-20T02:30:40;98333.66;;;-3.84;73.21
62436;BME280;48480;50.252;18.848;2022-11-20T02:33:05;98332.94;;;-3.82;72.95
62436;BME280;48480;50.252;18.848;2022-11-20T02:37:59;98343.16;;;-3.84;73.02
62436;BME280;48480;50.252;18.848;2022-11-20T02:40:26;98342.02;;;-3.92;72.90
62436;BME280;48480;50.252;18.848;2022-11-20T02:42:52;98338.11;;;-3.99;73.01
62436;BME280;48480;50.252;18.848;2022-11-20T02:45:18;98339.66;;;-4.10;73.20
62436;BME280;48480;50.252;18.848;2022-11-20T02:47:43;98345.69;;;-4.17;73.34
62436;BME280;48480;50.252;18.848;2022-11-20T02:50:09;98342.91;;;-4.27;73.31
62436;BME280;48480;50.252;18.848;2022-11-20T02:52:34;98341.73;;;-4.33;73.56
62436;BME280;48480;50.252;18.848;2022-11-20T02:55:00;98343.70;;;-4.35;73.62
62436;BME280;48480;50.252;18.848;2022-11-20T02:57:25;98340.12;;;-4.35;73.66
62436;BME280;48480;50.252;18.848;2022-11-20T02:59:51;98343.17;;;-4.35;73.63
62436;BME280;48480;50.252;18.848;2022-11-20T03:02:16;98338.83;;;-4.41;73.44
62436;BME280;48480;50.252;18.848;2022-11-20T03:04:42;98341.40;;;-4.44;73.41
62436;BME280;48480;50.252;18.848;2022-11-20T03:07:08;98343.08;;;-4.46;73.62
62436;BME280;48480;50.252;18.848;2022-11-20T03:09:34;98341.46;;;-4.46;73.57
62436;BME280;48480;50.252;18.848;2022-11-20T03:12:00;98342.02;;;-4.42;73.24
62436;BME280;48480;50.252;18.848;2022-11-20T03:14:25;98331.26;;;-4.47;73.13
62436;BME280;48480;50.252;18.848;2022-11-20T03:16:51;98337.94;;;-4.40;73.22
62436;BME280;48480;50.252;18.848;2022-11-20T03:19:16;98339.53;;;-4.37;73.11
62436;BME280;48480;50.252;18.848;2022-11-20T03:21:41;98340.55;;;-4.37;73.03
62436;BME280;48480;50.252;18.848;2022-11-20T03:24:07;98336.73;;;-4.38;73.00
62436;BME280;48480;50.252;18.848;2022-11-20T03:26:33;98338.20;;;-4.39;73.05
62436;BME280;48480;50.252;18.848;2022-11-20T03:29:00;98339.67;;;-4.40;73.03
62436;BME280;48480;50.252;18.848;2022-11-20T03:31:29;98341.92;;;-4.44;73.07
62436;BME280;48480;50.252;18.848;2022-11-20T03:33:56;98346.36;;;-4.47;73.10
62436;BME280;48480;50.252;18.848;2022-11-20T03:36:22;98345.50;;;-4.53;73.15
62436;BME280;48480;50.252;18.848;2022-11-20T03:38:48;98345.48;;;-4.54;73.35
62436;BME280;48480;50.252;18.848;2022-11-20T03:41:22;98344.56;;;-4.57;73.31
62436;BME280;48480;50.252;18.848;2022-11-20T03:43:49;98343.36;;;-4.60;73.40
62436;BME280;48480;50.252;18.848;2022-11-20T03:46:15;98343.71;;;-4.65;73.62
62436;BME280;48480;50.252;18.848;2022-11-20T03:48:40;98343.24;;;-4.67;73.66
62436;BME280;48480;50.252;18.848;2022-11-20T03:51:17;98337.07;;;-4.62;73.71
62436;BME280;48480;50.252;18.848;2022-11-20T03:53:45;98338.16;;;-4.59;73.35
62436;BME280;48480;50.252;18.848;2022-11-20T03:56:12;98335.88;;;-4.60;73.34
62436;BME280;48480;50.252;18.848;2022-11-20T03:58:38;98338.38;;;-4.57;73.33
62436;BME280;48480;50.252;18.848;2022-11-20T04:01:12;98335.81;;;-4.55;73.26
62436;BME280;48480;50.252;18.848;2022-11-20T04:03:39;98335.47;;;-4.52;73.15
62436;BME280;48480;50.252;18.848;2022-11-20T04:06:20;98337.99;;;-4.48;72.99
62436;BME280;48480;50.252;18.848;2022-11-20T04:08:46;98337.41;;;-4.46;72.81
62436;BME280;48480;50.252;18.848;2022-11-20T04:11:14;98335.58;;;-4.46;72.83
62436;BME280;48480;50.252;18.848;2022-11-20T04:13:41;98333.58;;;-4.43;72.79
62436;BME280;48480;50.252;18.848;2022-11-20T04:16:08;98332.81;;;-4.40;72.55
62436;BME280;48480;50.252;18.848;2022-11-20T04:18:35;98333.16;;;-4.39;72.42
62436;BME280;48480;50.252;18.848;2022-11-20T04:21:01;98336.14;;;-4.39;72.43
62436;BME280;48480;50.252;18.848;2022-11-20T04:23:27;98335.15;;;-4.41;72.65
62436;BME280;48480;50.252;18.848;2022-11-20T04:25:53;98330.35;;;-4.38;72.47
62436;BME280;48480;50.252;18.848;2022-11-20T04:28:18;98326.79;;;-4.36;72.21
62436;BME280;48480;50.252;18.848;2022-11-20T04:30:44;98323.80;;;-4.34;72.08
62436;BME280;48480;50.252;18.848;2022-11-20T04:33:10;98320.98;;;-4.32;71.45
62436;BME280;48480;50.252;18.848;2022-11-20T04:35:36;98317.52;;;-4.32;71.03
62436;BME280;48480;50.252;18.848;2022-11-20T04:38:01;98314.66;;;-4.35;70.81
62436;BME280;48480;50.252;18.848;2022-11-20T04:40:28;98314.58;;;-4.38;70.69
62436;BME280;48480;50.252;18.848;2022-11-20T04:42:54;98309.27;;;-4.41;70.36
62436;BME280;48480;50.252;18.848;2022-11-20T04:45:20;98308.88;;;-4.46;70.14
62436;BME280;48480;50.252;18.848;2022-11-20T04:47:46;98302.15;;;-4.49;70.29
62436;BME280;48480;50.252;18.848;2022-11-20T04:50:11;98298.00;;;-4.50;69.99
62436;BME280;48480;50.252;18.848;2022-11-20T04:52:36;98295.54;;;-4.52;69.82
62436;BME280;48480;50.252;18.848;2022-11-20T04:55:02;98293.85;;;-4.52;69.83
62436;BME280;48480;50.252;18.848;2022-11-20T04:57:27;98292.16;;;-4.53;69.64
62436;BME280;48480;50.252;18.848;2022-11-20T04:59:53;98293.25;;;-4.56;69.43
62436;BME280;48480;50.252;18.848;2022-11-20T05:02:18;98291.89;;;-4.57;69.45
62436;BME280;48480;50.252;18.848;2022-11-20T05:04:44;98286.86;;;-4.59;69.22
62436;BME280;48480;50.252;18.848;2022-11-20T05:07:09;98282.54;;;-4.62;69.56
62436;BME280;48480;50.252;18.848;2022-11-20T05:09:34;98281.65;;;-4.65;70.47
62436;BME280;48480;50.252;18.848;2022-11-20T05:12:00;98275.98;;;-4.68;70.98
62436;BME280;48480;50.252;18.848;2022-11-20T05:14:25;98271.56;;;-4.69;71.81
62436;BME280;48480;50.252;18.848;2022-11-20T05:16:50;98271.16;;;-4.66;71.85
62436;BME280;48480;50.252;18.848;2022-11-20T05:19:16;98274.59;;;-4.67;71.48
62436;BME280;48480;50.252;18.848;2022-11-20T05:21:41;98272.71;;;-4.69;71.96
62436;BME280;48480;50.252;18.848;2022-11-20T05:24:07;98276.34;;;-4.69;72.06
62436;BME280;48480;50.252;18.848;2022-11-20T05:26:32;98276.64;;;-4.64;72.23
62436;BME280;48480;50.252;18.848;2022-11-20T05:28:58;98274.50;;;-4.63;72.31
62436;BME280;48480;50.252;18.848;2022-11-20T05:31:24;98274.03;;;-4.59;72.25
62436;BME280;48480;50.252;18.848;2022-11-20T05:33:50;98270.82;;;-4.56;72.00
62436;BME280;48480;50.252;18.848;2022-11-20T05:36:16;98269.05;;;-4.53;71.81
62436;BME280;48480;50.252;18.848;2022-11-20T05:38:43;98266.41;;;-4.52;71.82
62436;BME280;48480;50.252;18.848;2022-11-20T05:41:17;98259.19;;;-4.50;71.33
62436;BME280;48480;50.252;18.848;2022-11-20T05:43:44;98259.01;;;-4.51;70.80
62436;BME280;48480;50.252;18.848;2022-11-20T05:46:14;98257.02;;;-4.51;70.51
62436;BME280;48480;50.252;18.848;2022-11-20T05:48:41;98259.83;;;-4.53;70.23
62436;BME280;48480;50.252;18.848;2022-11-20T05:51:08;98261.46;;;-4.55;69.92
62436;BME280;48480;50.252;18.848;2022-11-20T05:53:35;98260.53;;;-4.58;69.90
62436;BME280;48480;50.252;18.848;2022-11-20T05:56:06;98267.88;;;-4.62;69.56
62436;BME280;48480;50.252;18.848;2022-11-20T05:58:32;98262.08;;;-4.65;69.44
62436;BME280;48480;50.252;18.848;2022-11-20T06:01:09;98262.98;;;-4.69;69.13
62436;BME280;48480;50.252;18.848;2022-11-20T06:03:36;98262.60;;;-4.74;68.92
62436;BME280;48480;50.252;18.848;2022-11-20T06:06:03;98263.86;;;-4.79;68.78
62436;BME280;48480;50.252;18.848;2022-11-20T06:08:29;98263.79;;;-4.82;68.88
62436;BME280;48480;50.252;18.848;2022-11-20T06:10:55;98265.39;;;-4.85;69.01
62436;BME280;48480;50.252;18.848;2022-11-20T06:13:20;98266.39;;;-4.86;69.24
62436;BME280;48480;50.252;18.848;2022-11-20T06:15:53;98268.98;;;-4.87;69.09
62436;BME280;48480;50.252;18.848;2022-11-20T06:18:19;98270.21;;;-4.86;68.97
62436;BME280;48480;50.252;18.848;2022-11-20T06:20:44;98268.55;;;-4.84;68.84
62436;BME280;48480;50.252;18.848;2022-11-20T06:23:10;98267.48;;;-4.84;68.48
62436;BME280;48480;50.252;18.848;2022-11-20T06:25:42;98269.10;;;-4.86;68.35
62436;BME280;48480;50.252;18.848;2022-11-20T06:28:08;98275.85;;;-4.88;68.02
62436;BME280;48480;50.252;18.848;2022-11-20T06:30:35;98273.33;;;-4.93;68.01
62436;BME280;48480;50.252;18.848;2022-11-20T06:33:00;98270.40;;;-4.95;68.14
62436;BME280;48480;50.252;18.848;2022-11-20T06:35:26;98268.33;;;-4.96;67.92
62436;BME280;48480;50.252;18.848;2022-11-20T06:37:51;98261.08;;;-4.98;67.82
62436;BME280;48480;50.252;18.848;2022-11-20T06:40:16;98260.89;;;-5.00;67.79
62436;BME280;48480;50.252;18.848;2022-11-20T06:42:42;98260.05;;;-5.00;67.94
62436;BME280;48480;50.252;18.848;2022-11-20T06:45:08;98226.85;;;-5.24;67.99
62436;BME280;48480;50.252;18.848;2022-11-20T06:47:34;98256.55;;;-5.00;68.47
62436;BME280;48480;50.252;18.848;2022-11-20T06:49:59;98257.48;;;-4.94;68.51
62436;BME280;48480;50.252;18.848;2022-11-20T06:52:25;98254.22;;;-4.91;68.64
62436;BME280;48480;50.252;18.848;2022-11-20T06:54:50;98252.20;;;-4.86;68.49
62436;BME280;48480;50.252;18.848;2022-11-20T06:57:15;98252.07;;;-4.85;68.44
62436;BME280;48480;50.252;18.848;2022-11-20T06:59:41;98218.06;;;-5.09;68.70
62436;BME280;48480;50.252;18.848;2022-11-20T07:02:10;98247.83;;;-4.82;68.90
62436;BME280;48480;50.252;18.848;2022-11-20T07:04:36;98243.54;;;-4.76;68.76
62436;BME280;48480;50.252;18.848;2022-11-20T07:07:02;98240.52;;;-4.73;68.64
62436;BME280;48480;50.252;18.848;2022-11-20T07:09:27;98234.93;;;-4.71;68.58
62436;BME280;48480;50.252;18.848;2022-11-20T07:11:53;98234.21;;;-4.70;68.53
62436;BME280;48480;50.252;18.848;2022-11-20T07:14:18;98233.73;;;-4.66;68.59
62436;BME280;48480;50.252;18.848;2022-11-20T07:16:43;98234.06;;;-4.60;68.68
62436;BME280;48480;50.252;18.848;2022-11-20T07:19:09;98235.15;;;-4.58;68.73
62436;BME280;48480;50.252;18.848;2022-11-20T07:21:34;98235.88;;;-4.54;68.83
62436;BME280;48480;50.252;18.848;2022-11-20T07:24:00;98233.34;;;-4.51;69.10
62436;BME280;48480;50.252;18.848;2022-11-20T07:26:25;98236.32;;;-4.45;69.28
62436;BME280;48480;50.252;18.848;2022-11-20T07:28:50;98239.11;;;-4.40;69.29
62436;BME280;48480;50.252;18.848;2022-11-20T07:31:16;98240.23;;;-4.34;69.35
62436;BME280;48480;50.252;18.848;2022-11-20T07:33:41;98242.00;;;-4.28;69.47
62436;BME280;48480;50.252;18.848;2022-11-20T07:36:07;98242.22;;;-4.21;69.56
62436;BME280;48480;50.252;18.848;2022-11-20T07:38:32;98238.62;;;-4.18;69.59
62436;BME280;48480;50.252;18.848;2022-11-20T07:40:58;98235.92;;;-4.13;69.76
62436;BME280;48480;50.252;18.848;2022-11-20T07:43:27;98233.38;;;-4.05;69.84
62436;BME280;48480;50.252;18.848;2022-11-20T07:45:57;98232.61;;;-3.97;69.88
62436;BME280;48480;50.252;18.848;2022-11-20T07:48:23;98227.20;;;-3.86;69.90
62436;BME280;48480;50.252;18.848;2022-11-20T07:50:49;98229.48;;;-3.70;69.80
62436;BME280;48480;50.252;18.848;2022-11-20T07:53:17;98229.31;;;-3.45;70.21
62436;BME280;48480;50.252;18.848;2022-11-20T07:55:46;98219.91;;;-3.18;69.89
62436;BME280;48480;50.252;18.848;2022-11-20T07:58:12;98232.80;;;-2.71;69.60
62436;BME280;48480;50.252;18.848;2022-11-20T08:00:37;98233.33;;;-2.29;69.15
62436;BME280;48480;50.252;18.848;2022-11-20T08:03:06;98232.20;;;-1.87;68.64
62436;BME280;48480;50.252;18.848;2022-11-20T08:05:32;98237.35;;;-1.44;68.02
62436;BME280;48480;50.252;18.848;2022-11-20T08:07:57;98238.98;;;-1.03;67.46
62436;BME280;48480;50.252;18.848;2022-11-20T08:10:25;98239.36;;;-0.65;67.14
62436;BME280;48480;50.252;18.848;2022-11-20T08:12:52;98240.30;;;-0.24;66.45
62436;BME280;48480;50.252;18.848;2022-11-20T08:15:48;98245.30;;;0.21;65.83
62436;BME280;48480;50.252;18.848;2022-11-20T08:18:15;98252.24;;;0.54;65.12
62436;BME280;48480;50.252;18.848;2022-11-20T08:20:40;98251.48;;;0.80;64.67
62436;BME280;48480;50.252;18.848;2022-11-20T08:23:07;98256.36;;;1.04;64.16
62436;BME280;48480;50.252;18.848;2022-11-20T08:25:34;98256.18;;;1.25;63.52
62436;BME280;48480;50.252;18.848;2022-11-20T08:28:08;98259.20;;;1.47;63.22
62436;BME280;48480;50.252;18.848;2022-11-20T08:30:35;98258.03;;;1.63;62.76
62436;BME280;48480;50.252;18.848;2022-11-20T08:33:06;98257.86;;;1.60;62.15
62436;BME280;48480;50.252;18.848;2022-11-20T08:35:37;98257.48;;;1.56;62.15
62436;BME280;48480;50.252;18.848;2022-11-20T08:38:05;98255.47;;;1.49;62.24
62436;BME280;48480;50.252;18.848;2022-11-20T08:40:33;98252.52;;;1.38;62.31
62436;BME280;48480;50.252;18.848;2022-11-20T08:42:59;98253.77;;;1.28;62.67
62436;BME280;48480;50.252;18.848;2022-11-20T08:45:24;98258.02;;;1.23;62.74
62436;BME280;48480;50.252;18.848;2022-11-20T08:47:50;98261.10;;;1.26;62.95
62436;BME280;48480;50.252;18.848;2022-11-20T08:50:16;98221.16;;;0.96;62.91
62436;BME280;48480;50.252;18.848;2022-11-20T08:52:42;98260.98;;;1.23;62.79
62436;BME280;48480;50.252;18.848;2022-11-20T08:55:09;98263.45;;;1.18;62.85
62436;BME280;48480;50.252;18.848;2022-11-20T08:57:35;98256.34;;;1.10;62.95
62436;BME280;48480;50.252;18.848;2022-11-20T09:00:03;98248.96;;;1.03;63.04
62436;BME280;48480;50.252;18.848;2022-11-20T09:02:29;98255.44;;;0.97;62.94
62436;BME280;48480;50.252;18.848;2022-11-20T09:04:55;98251.97;;;0.89;63.10
62436;BME280;48480;50.252;18.848;2022-11-20T09:07:20;98254.73;;;0.83;63.13
62436;BME280;48480;50.252;18.848;2022-11-20T09:09:45;98254.30;;;0.72;63.35
62436;BME280;48480;50.252;18.848;2022-11-20T09:12:11;98259.88;;;0.67;63.67
62436;BME280;48480;50.252;18.848;2022-11-20T09:14:36;98258.10;;;0.62;63.78
62436;BME280;48480;50.252;18.848;2022-11-20T09:17:02;98260.29;;;0.57;63.70
62436;BME280;48480;50.252;18.848;2022-11-20T09:19:27;98258.89;;;0.53;63.80
62436;BME280;48480;50.252;18.848;2022-11-20T09:21:53;98256.11;;;0.50;64.22
62436;BME280;48480;50.252;18.848;2022-11-20T09:24:20;98252.92;;;0.51;64.42
62436;BME280;48480;50.252;18.848;2022-11-20T09:26:48;98251.38;;;0.58;64.50
62436;BME280;48480;50.252;18.848;2022-11-20T09:29:13;98251.35;;;0.65;64.53
62436;BME280;48480;50.252;18.848;2022-11-20T09:31:39;98248.35;;;0.68;64.52
62436;BME280;48480;50.252;18.848;2022-11-20T09:34:04;98245.60;;;0.73;64.78
62436;BME280;48480;50.252;18.848;2022-11-20T09:36:29;98237.61;;;0.80;64.91
62436;BME280;48480;50.252;18.848;2022-11-20T09:38:55;98238.91;;;0.88;64.77
62436;BME280;48480;50.252;18.848;2022-11-20T09:49:27;98223.83;;;1.21;64.27
62436;BME280;48480;50.252;18.848;2022-11-20T09:52:00;98216.42;;;1.24;63.96
62436;BME280;48480;50.252;18.848;2022-11-20T09:54:31;98214.92;;;1.34;63.83
62436;BME280;48480;50.252;18.848;2022-11-20T09:57:14;98212.03;;;1.41;63.81
62436;BME280;48480;50.252;18.848;2022-11-20T09:59:58;98213.30;;;1.63;63.68
62436;BME280;48480;50.252;18.848;2022-11-20T10:02:29;98212.63;;;1.84;63.39
62436;BME280;48480;50.252;18.848;2022-11-20T10:05:04;98208.81;;;2.05;63.23
62436;BME280;48480;50.252;18.848;2022-11-20T10:07:40;98204.52;;;2.18;62.72
62436;BME280;48480;50.252;18.848;2022-11-20T10:10:28;98210.08;;;2.24;62.72
62436;BME280;48480;50.252;18.848;2022-11-20T10:13:07;98207.38;;;2.27;62.91
62436;BME280;48480;50.252;18.848;2022-11-20T10:21:25;98181.67;;;2.03;62.84
62436;BME280;48480;50.252;18.848;2022-11-20T10:30:17;98189.93;;;1.95;62.73
62436;BME280;48480;50.252;18.848;2022-11-20T10:33:05;98188.50;;;1.93;62.47
62436;BME280;48480;50.252;18.848;2022-11-20T10:35:40;98180.89;;;1.95;62.54
62436;BME280;48480;50.252;18.848;2022-11-20T10:38:14;98176.60;;;1.94;62.35
62436;BME280;48480;50.252;18.848;2022-11-20T10:40:44;98175.32;;;2.03;62.23
62436;BME280;48480;50.252;18.848;2022-11-20T10:43:15;98167.00;;;2.17;61.97
62436;BME280;48480;50.252;18.848;2022-11-20T10:45:49;98157.67;;;2.27;61.75
62436;BME280;48480;50.252;18.848;2022-11-20T10:48:25;98154.63;;;2.36;61.80
62436;BME280;48480;50.252;18.848;2022-11-20T10:53:42;98149.14;;;2.46;61.29
62436;BME280;48480;50.252;18.848;2022-11-20T10:56:30;98146.77;;;2.47;61.29
62436;BME280;48480;50.252;18.848;2022-11-20T11:01:43;98148.89;;;2.62;61.19
62436;BME280;48480;50.252;18.848;2022-11-20T11:04:35;98148.95;;;2.71;61.28
62436;BME280;48480;50.252;18.848;2022-11-20T11:07:10;98141.55;;;2.82;61.20
62436;BME280;48480;50.252;18.848;2022-11-20T11:09:49;98144.19;;;2.95;61.33
62436;BME280;48480;50.252;18.848;2022-11-20T11:12:15;98144.52;;;3.05;61.13
62436;BME280;48480;50.252;18.848;2022-11-20T11:14:49;98146.70;;;3.15;61.02
62436;BME280;48480;50.252;18.848;2022-11-20T11:17:30;98148.66;;;3.21;61.03
62436;BME280;48480;50.252;18.848;2022-11-20T11:22:34;98147.46;;;3.17;60.78
62436;BME280;48480;50.252;18.848;2022-11-20T11:25:19;98149.61;;;3.14;60.86
62436;BME280;48480;50.252;18.848;2022-11-20T11:27:51;98154.60;;;3.09;61.02
62436;BME280;48480;50.252;18.848;2022-11-20T11:30:19;98149.39;;;3.04;61.39
62436;BME280;48480;50.252;18.848;2022-11-20T11:32:47;98151.20;;;3.02;61.49
62436;BME280;48480;50.252;18.848;2022-11-20T11:35:26;98148.80;;;2.96;61.80
62436;BME280;48480;50.252;18.848;2022-11-20T11:38:00;98141.27;;;2.84;62.06
62436;BME280;48480;50.252;18.848;2022-11-20T11:40:28;98139.51;;;2.77;62.58
62436;BME280;48480;50.252;18.848;2022-11-20T11:42:59;98135.58;;;2.65;63.02
62436;BME280;48480;50.252;18.848;2022-11-20T11:45:27;98129.42;;;2.54;63.45
62436;BME280;48480;50.252;18.848;2022-11-20T11:47:55;98122.28;;;2.49;63.77
62436;BME280;48480;50.252;18.848;2022-11-20T11:50:24;98119.75;;;2.50;64.00
62436;BME280;48480;50.252;18.848;2022-11-20T11:53:08;98119.33;;;2.50;64.08
62436;BME280;48480;50.252;18.848;2022-11-20T11:55:50;98118.02;;;2.57;63.96
62436;BME280;48480;50.252;18.848;2022-11-20T11:58:46;98115.02;;;2.54;64.14
62436;BME280;48480;50.252;18.848;2022-11-20T12:01:34;98123.66;;;2.52;64.16
62436;BME280;48480;50.252;18.848;2022-11-20T12:07:04;98090.66;;;2.23;64.49
62436;BME280;48480;50.252;18.848;2022-11-20T12:09:38;98119.48;;;2.40;64.58
62436;BME280;48480;50.252;18.848;2022-11-20T12:12:17;98115.92;;;2.39;64.75
62436;BME280;48480;50.252;18.848;2022-11-20T12:14:48;98117.70;;;2.42;64.93
62436;BME280;48480;50.252;18.848;2022-11-20T12:17:16;98113.96;;;2.42;64.65
62436;BME280;48480;50.252;18.848;2022-11-20T12:19:44;98105.46;;;2.45;64.62
62436;BME280;48480;50.252;18.848;2022-11-20T12:25:02;98091.97;;;2.58;64.58
62436;BME280;48480;50.252;18.848;2022-11-20T12:27:47;98090.14;;;2.65;64.76
62436;BME280;48480;50.252;18.848;2022-11-20T12:30:21;98084.08;;;2.71;64.54
62436;BME280;48480;50.252;18.848;2022-11-20T12:38:48;98067.21;;;2.85;63.86
62436;BME280;48480;50.252;18.848;2022-11-20T12:53:11;98059.45;;;2.59;64.14
62436;BME280;48480;50.252;18.848;2022-11-20T13:00:57;98049.77;;;2.43;64.65
62436;BME280;48480;50.252;18.848;2022-11-20T13:03:36;98048.73;;;2.38;64.91
62436;BME280;48480;50.252;18.848;2022-11-20T13:06:12;98046.73;;;2.36;64.90
62436;BME280;48480;50.252;18.848;2022-11-20T13:08:40;98045.81;;;2.39;65.02
62436;BME280;48480;50.252;18.848;2022-11-20T13:19:55;98035.27;;;2.43;65.54
62436;BME280;48480;50.252;18.848;2022-11-20T13:22:25;98030.83;;;2.43;65.40
62436;BME280;48480;50.252;18.848;2022-11-20T13:24:51;98029.30;;;2.42;65.56
62436;BME280;48480;50.252;18.848;2022-11-20T13:27:19;98030.21;;;2.37;65.47
62436;BME280;48480;50.252;18.848;2022-11-20T13:30:15;98028.08;;;2.29;65.60
62436;BME280;48480;50.252;18.848;2022-11-20T13:35:36;98024.71;;;2.09;66.27
62436;BME280;48480;50.252;18.848;2022-11-20T13:40:30;98025.64;;;1.99;66.59
62436;BME280;48480;50.252;18.848;2022-11-20T13:43:04;98020.79;;;1.93;66.79
62436;BME280;48480;50.252;18.848;2022-11-20T13:45:32;98024.51;;;1.89;66.86
62436;BME280;48480;50.252;18.848;2022-11-20T13:48:04;98024.62;;;1.86;67.14
62436;BME280;48480;50.252;18.848;2022-11-20T13:55:59;98008.91;;;2.00;67.02
62436;BME280;48480;50.252;18.848;2022-11-20T13:58:35;98007.68;;;2.08;66.85
62436;BME280;48480;50.252;18.848;2022-11-20T14:01:19;97974.77;;;1.92;66.97
62436;BME280;48480;50.252;18.848;2022-11-20T14:03:46;98005.58;;;2.17;66.99
62436;BME280;48480;50.252;18.848;2022-11-20T14:06:21;98000.66;;;2.19;66.88
62436;BME280;48480;50.252;18.848;2022-11-20T14:08:51;98008.27;;;2.19;67.00
62436;BME280;48480;50.252;18.848;2022-11-20T14:11:20;98006.05;;;2.18;66.90
62436;BME280;48480;50.252;18.848;2022-11-20T14:16:36;98006.02;;;2.22;66.97
62436;BME280;48480;50.252;18.848;2022-11-20T14:21:52;98008.84;;;2.23;67.05
62436;BME280;48480;50.252;18.848;2022-11-20T14:24:20;98007.29;;;2.25;67.07
62436;BME280;48480;50.252;18.848;2022-11-20T14:26:47;98001.38;;;2.24;66.94
62436;BME280;48480;50.252;18.848;2022-11-20T14:29:26;97995.65;;;2.24;67.10
62436;BME280;48480;50.252;18.848;2022-11-20T14:31:54;97994.69;;;2.26;67.31
62436;BME280;48480;50.252;18.848;2022-11-20T14:34:32;97995.65;;;2.24;67.08
62436;BME280;48480;50.252;18.848;2022-11-20T14:37:02;97996.13;;;2.23;67.25